Aeroporto do Galeao, Brazil
Current Conditions -  °F | °C
As of 12:00 PM on Thursday 23 Oct 2014 (Local Time) from SBSV Reporting Station
Few Clouds Few Clouds  
Wind Chill: 82°   Ceiling: Unl
Heat Index: 84°   Visibility: 6mi
Dew Point: 64°   Wind: 10mph
Humidity: 54%   Direction: 150°SSE
Pressure: 30"   Gusts: NA
Location:  13.39°S, 39.03°W
Report Text: SBSV 231500Z 15009KT 9999 FEW017 28/18 Q1016
Loading
Personal Weather Stations






























Interactive Weather Map
Tropical Storm Tracking
New forecast layout! Learn more

10-Day Weather Forecast

Advertisements
Track Severe Weather on mobile